sensor_id;sensor_type;location;lat;lon;timestamp;P1;durP1;ratioP1;P2;durP2;ratioP2
72273;SDS011;60208;48.692;8.948;2022-09-13T00:00:55;3.28;;;2.60;;
72273;SDS011;60208;48.692;8.948;2022-09-13T00:03:21;2.60;;;2.40;;
72273;SDS011;60208;48.692;8.948;2022-09-13T00:05:47;3.40;;;2.60;;
72273;SDS011;60208;48.692;8.948;2022-09-13T00:08:13;3.75;;;2.65;;
72273;SDS011;60208;48.692;8.948;2022-09-13T00:10:39;5.00;;;2.58;;
72273;SDS011;60208;48.692;8.948;2022-09-13T00:13:08;4.32;;;2.63;;
72273;SDS011;60208;48.692;8.948;2022-09-13T00:15:35;3.95;;;3.03;;
72273;SDS011;60208;48.692;8.948;2022-09-13T00:18:01;3.63;;;2.72;;
72273;SDS011;60208;48.692;8.948;2022-09-13T00:20:26;2.70;;;2.50;;
72273;SDS011;60208;48.692;8.948;2022-09-13T00:22:51;3.40;;;2.50;;
72273;SDS011;60208;48.692;8.948;2022-09-13T00:25:17;2.95;;;2.65;;
72273;SDS011;60208;48.692;8.948;2022-09-13T00:27:44;4.43;;;2.78;;
72273;SDS011;60208;48.692;8.948;2022-09-13T00:30:10;3.58;;;2.45;;
72273;SDS011;60208;48.692;8.948;2022-09-13T00:32:36;3.70;;;2.38;;
72273;SDS011;60208;48.692;8.948;2022-09-13T00:35:02;5.28;;;2.65;;
72273;SDS011;60208;48.692;8.948;2022-09-13T00:37:28;3.70;;;2.65;;
72273;SDS011;60208;48.692;8.948;2022-09-13T00:39:53;2.72;;;2.47;;
72273;SDS011;60208;48.692;8.948;2022-09-13T00:42:23;3.42;;;2.22;;
72273;SDS011;60208;48.692;8.948;2022-09-13T00:49:58;4.90;;;2.92;;
72273;SDS011;60208;48.692;8.948;2022-09-13T00:52:27;4.88;;;2.45;;
72273;SDS011;60208;48.692;8.948;2022-09-13T00:54:55;3.03;;;2.50;;
72273;SDS011;60208;48.692;8.948;2022-09-13T00:57:25;4.07;;;2.70;;
72273;SDS011;60208;48.692;8.948;2022-09-13T00:59:53;3.83;;;2.72;;
72273;SDS011;60208;48.692;8.948;2022-09-13T01:02:23;6.00;;;2.92;;
72273;SDS011;60208;48.692;8.948;2022-09-13T01:04:49;2.95;;;2.58;;
72273;SDS011;60208;48.692;8.948;2022-09-13T01:07:14;2.95;;;2.65;;
72273;SDS011;60208;48.692;8.948;2022-09-13T01:09:41;3.95;;;2.50;;
72273;SDS011;60208;48.692;8.948;2022-09-13T01:12:12;3.13;;;2.50;;
72273;SDS011;60208;48.692;8.948;2022-09-13T01:14:44;2.67;;;2.47;;
72273;SDS011;60208;48.692;8.948;2022-09-13T01:17:10;4.03;;;2.80;;
72273;SDS011;60208;48.692;8.948;2022-09-13T01:19:36;2.95;;;2.60;;
72273;SDS011;60208;48.692;8.948;2022-09-13T01:30:19;3.50;;;2.60;;
72273;SDS011;60208;48.692;8.948;2022-09-13T01:40:43;3.30;;;2.80;;
72273;SDS011;60208;48.692;8.948;2022-09-13T01:46:21;3.00;;;2.70;;
72273;SDS011;60208;48.692;8.948;2022-09-13T01:57:08;3.67;;;2.75;;
72273;SDS011;60208;48.692;8.948;2022-09-13T02:02:07;3.08;;;2.58;;
72273;SDS011;60208;48.692;8.948;2022-09-13T02:04:42;3.28;;;2.78;;
72273;SDS011;60208;48.692;8.948;2022-09-13T02:07:12;3.90;;;2.65;;
72273;SDS011;60208;48.692;8.948;2022-09-13T02:09:43;2.80;;;2.50;;
72273;SDS011;60208;48.692;8.948;2022-09-13T02:12:15;3.65;;;2.60;;
72273;SDS011;60208;48.692;8.948;2022-09-13T02:14:44;4.28;;;2.78;;
72273;SDS011;60208;48.692;8.948;2022-09-13T02:17:13;3.33;;;3.00;;
72273;SDS011;60208;48.692;8.948;2022-09-13T02:19:42;2.92;;;2.63;;
72273;SDS011;60208;48.692;8.948;2022-09-13T02:22:14;4.40;;;3.10;;
72273;SDS011;60208;48.692;8.948;2022-09-13T02:24:44;3.80;;;2.78;;
72273;SDS011;60208;48.692;8.948;2022-09-13T02:27:14;2.90;;;2.60;;
72273;SDS011;60208;48.692;8.948;2022-09-13T02:29:44;3.83;;;2.67;;
72273;SDS011;60208;48.692;8.948;2022-09-13T02:32:13;3.33;;;2.67;;
72273;SDS011;60208;48.692;8.948;2022-09-13T02:34:42;4.05;;;2.72;;
72273;SDS011;60208;48.692;8.948;2022-09-13T02:37:11;4.95;;;2.80;;
72273;SDS011;60208;48.692;8.948;2022-09-13T02:39:39;3.45;;;3.00;;
72273;SDS011;60208;48.692;8.948;2022-09-13T02:42:09;5.88;;;3.20;;
72273;SDS011;60208;48.692;8.948;2022-09-13T02:44:40;3.25;;;2.80;;
72273;SDS011;60208;48.692;8.948;2022-09-13T02:50:26;6.88;;;3.22;;
72273;SDS011;60208;48.692;8.948;2022-09-13T02:53:59;3.88;;;3.20;;
72273;SDS011;60208;48.692;8.948;2022-09-13T03:01:46;5.80;;;3.50;;
72273;SDS011;60208;48.692;8.948;2022-09-13T03:04:24;5.07;;;3.10;;
72273;SDS011;60208;48.692;8.948;2022-09-13T03:06:51;4.88;;;2.90;;
72273;SDS011;60208;48.692;8.948;2022-09-13T03:09:16;3.20;;;2.90;;
72273;SDS011;60208;48.692;8.948;2022-09-13T03:14:43;4.43;;;3.42;;
72273;SDS011;60208;48.692;8.948;2022-09-13T03:17:16;3.90;;;3.50;;
72273;SDS011;60208;48.692;8.948;2022-09-13T03:31:20;3.95;;;2.92;;
72273;SDS011;60208;48.692;8.948;2022-09-13T03:39:54;3.80;;;3.30;;
72273;SDS011;60208;48.692;8.948;2022-09-13T03:45:07;4.20;;;3.33;;
72273;SDS011;60208;48.692;8.948;2022-09-13T03:47:33;4.93;;;3.40;;
72273;SDS011;60208;48.692;8.948;2022-09-13T03:50:01;6.63;;;3.85;;
72273;SDS011;60208;48.692;8.948;2022-09-13T03:52:27;4.55;;;3.50;;
72273;SDS011;60208;48.692;8.948;2022-09-13T03:54:53;6.15;;;3.40;;
72273;SDS011;60208;48.692;8.948;2022-09-13T03:57:19;4.45;;;3.30;;
72273;SDS011;60208;48.692;8.948;2022-09-13T03:59:52;5.82;;;3.20;;
72273;SDS011;60208;48.692;8.948;2022-09-13T04:04:44;5.40;;;3.78;;
72273;SDS011;60208;48.692;8.948;2022-09-13T04:07:12;3.97;;;3.22;;
72273;SDS011;60208;48.692;8.948;2022-09-13T04:09:39;5.95;;;3.28;;
72273;SDS011;60208;48.692;8.948;2022-09-13T04:12:04;5.28;;;3.65;;
72273;SDS011;60208;48.692;8.948;2022-09-13T04:14:30;7.13;;;3.30;;
72273;SDS011;60208;48.692;8.948;2022-09-13T04:16:56;9.10;;;3.25;;
72273;SDS011;60208;48.692;8.948;2022-09-13T04:19:22;6.55;;;3.20;;
72273;SDS011;60208;48.692;8.948;2022-09-13T04:21:48;4.13;;;3.40;;
72273;SDS011;60208;48.692;8.948;2022-09-13T04:24:15;5.53;;;3.20;;
72273;SDS011;60208;48.692;8.948;2022-09-13T04:26:40;4.50;;;3.40;;
72273;SDS011;60208;48.692;8.948;2022-09-13T04:29:06;4.22;;;3.30;;
72273;SDS011;60208;48.692;8.948;2022-09-13T04:31:31;5.10;;;3.60;;
72273;SDS011;60208;48.692;8.948;2022-09-13T04:33:56;4.50;;;3.50;;
72273;SDS011;60208;48.692;8.948;2022-09-13T04:36:22;4.20;;;3.13;;
72273;SDS011;60208;48.692;8.948;2022-09-13T04:38:48;3.20;;;2.90;;
72273;SDS011;60208;48.692;8.948;2022-09-13T04:41:13;5.75;;;3.03;;
72273;SDS011;60208;48.692;8.948;2022-09-13T04:43:39;5.15;;;2.95;;
72273;SDS011;60208;48.692;8.948;2022-09-13T04:46:05;3.20;;;2.90;;
72273;SDS011;60208;48.692;8.948;2022-09-13T04:48:30;3.08;;;2.67;;
72273;SDS011;60208;48.692;8.948;2022-09-13T04:51:02;4.68;;;2.90;;
72273;SDS011;60208;48.692;8.948;2022-09-13T04:53:30;4.05;;;2.90;;
72273;SDS011;60208;48.692;8.948;2022-09-13T04:56:00;4.57;;;3.17;;
72273;SDS011;60208;48.692;8.948;2022-09-13T04:58:26;4.57;;;3.10;;
72273;SDS011;60208;48.692;8.948;2022-09-13T05:00:51;4.25;;;2.80;;
72273;SDS011;60208;48.692;8.948;2022-09-13T05:03:20;4.80;;;3.78;;
72273;SDS011;60208;48.692;8.948;2022-09-13T05:05:46;6.63;;;3.92;;
72273;SDS011;60208;48.692;8.948;2022-09-13T05:08:11;3.80;;;3.38;;
72273;SDS011;60208;48.692;8.948;2022-09-13T05:10:37;4.03;;;3.30;;
72273;SDS011;60208;48.692;8.948;2022-09-13T05:13:02;5.43;;;3.00;;
72273;SDS011;60208;48.692;8.948;2022-09-13T05:15:27;3.78;;;3.10;;
72273;SDS011;60208;48.692;8.948;2022-09-13T05:17:53;5.97;;;3.00;;
72273;SDS011;60208;48.692;8.948;2022-09-13T05:20:18;4.13;;;2.95;;
72273;SDS011;60208;48.692;8.948;2022-09-13T05:22:44;3.88;;;3.20;;
72273;SDS011;60208;48.692;8.948;2022-09-13T05:25:09;3.97;;;3.22;;
72273;SDS011;60208;48.692;8.948;2022-09-13T05:27:34;4.47;;;3.17;;
72273;SDS011;60208;48.692;8.948;2022-09-13T05:30:00;4.43;;;3.25;;
72273;SDS011;60208;48.692;8.948;2022-09-13T05:32:25;3.70;;;3.40;;
72273;SDS011;60208;48.692;8.948;2022-09-13T05:34:50;6.50;;;3.40;;
72273;SDS011;60208;48.692;8.948;2022-09-13T05:37:17;4.22;;;3.10;;
72273;SDS011;60208;48.692;8.948;2022-09-13T05:39:42;4.70;;;3.30;;
72273;SDS011;60208;48.692;8.948;2022-09-13T05:42:07;3.40;;;3.08;;
72273;SDS011;60208;48.692;8.948;2022-09-13T05:44:33;8.35;;;3.67;;
72273;SDS011;60208;48.692;8.948;2022-09-13T05:46:58;8.48;;;3.42;;
72273;SDS011;60208;48.692;8.948;2022-09-13T05:49:23;6.20;;;3.95;;
72273;SDS011;60208;48.692;8.948;2022-09-13T05:51:49;6.95;;;3.40;;
72273;SDS011;60208;48.692;8.948;2022-09-13T05:54:14;6.13;;;3.90;;
72273;SDS011;60208;48.692;8.948;2022-09-13T05:56:39;5.82;;;4.10;;
72273;SDS011;60208;48.692;8.948;2022-09-13T05:59:05;6.43;;;3.72;;
72273;SDS011;60208;48.692;8.948;2022-09-13T06:01:30;6.13;;;3.75;;
72273;SDS011;60208;48.692;8.948;2022-09-13T06:03:56;5.78;;;3.50;;
72273;SDS011;60208;48.692;8.948;2022-09-13T06:06:22;6.00;;;3.92;;
72273;SDS011;60208;48.692;8.948;2022-09-13T06:08:55;6.35;;;3.50;;
72273;SDS011;60208;48.692;8.948;2022-09-13T06:11:21;3.78;;;3.30;;
72273;SDS011;60208;48.692;8.948;2022-09-13T06:13:47;6.03;;;2.92;;
72273;SDS011;60208;48.692;8.948;2022-09-13T06:16:13;4.03;;;3.00;;
72273;SDS011;60208;48.692;8.948;2022-09-13T06:18:40;4.05;;;3.50;;
72273;SDS011;60208;48.692;8.948;2022-09-13T06:21:13;4.35;;;3.33;;
72273;SDS011;60208;48.692;8.948;2022-09-13T06:23:45;5.00;;;3.38;;
72273;SDS011;60208;48.692;8.948;2022-09-13T06:26:13;3.22;;;2.90;;
72273;SDS011;60208;48.692;8.948;2022-09-13T06:28:40;5.35;;;3.50;;
72273;SDS011;60208;48.692;8.948;2022-09-13T06:31:06;6.93;;;3.30;;
72273;SDS011;60208;48.692;8.948;2022-09-13T06:33:33;6.45;;;3.50;;
72273;SDS011;60208;48.692;8.948;2022-09-13T06:36:00;3.97;;;2.95;;
72273;SDS011;60208;48.692;8.948;2022-09-13T06:38:46;7.78;;;3.30;;
72273;SDS011;60208;48.692;8.948;2022-09-13T06:41:13;6.97;;;3.28;;
72273;SDS011;60208;48.692;8.948;2022-09-13T06:43:43;5.50;;;3.38;;
72273;SDS011;60208;48.692;8.948;2022-09-13T06:46:10;7.72;;;3.70;;
72273;SDS011;60208;48.692;8.948;2022-09-13T06:48:38;5.72;;;3.30;;
72273;SDS011;60208;48.692;8.948;2022-09-13T06:51:07;6.30;;;3.70;;
72273;SDS011;60208;48.692;8.948;2022-09-13T06:53:34;4.72;;;3.28;;
72273;SDS011;60208;48.692;8.948;2022-09-13T06:56:01;6.47;;;3.63;;
72273;SDS011;60208;48.692;8.948;2022-09-13T06:58:31;4.43;;;3.05;;
72273;SDS011;60208;48.692;8.948;2022-09-13T07:01:19;3.17;;;2.80;;
72273;SDS011;60208;48.692;8.948;2022-09-13T07:03:48;3.97;;;2.88;;
72273;SDS011;60208;48.692;8.948;2022-09-13T07:06:15;4.60;;;3.33;;
72273;SDS011;60208;48.692;8.948;2022-09-13T07:08:41;4.90;;;3.08;;
72273;SDS011;60208;48.692;8.948;2022-09-13T07:11:08;5.57;;;3.10;;
72273;SDS011;60208;48.692;8.948;2022-09-13T07:13:34;6.40;;;2.97;;
72273;SDS011;60208;48.692;8.948;2022-09-13T07:16:01;5.93;;;2.83;;
72273;SDS011;60208;48.692;8.948;2022-09-13T07:18:28;5.00;;;2.72;;
72273;SDS011;60208;48.692;8.948;2022-09-13T07:21:03;2.65;;;2.30;;
72273;SDS011;60208;48.692;8.948;2022-09-13T07:23:31;2.65;;;2.40;;
72273;SDS011;60208;48.692;8.948;2022-09-13T07:25:57;5.05;;;2.65;;
72273;SDS011;60208;48.692;8.948;2022-09-13T07:28:29;6.97;;;2.50;;
72273;SDS011;60208;48.692;8.948;2022-09-13T07:31:02;5.57;;;2.38;;
72273;SDS011;60208;48.692;8.948;2022-09-13T07:33:31;6.30;;;2.53;;
72273;SDS011;60208;48.692;8.948;2022-09-13T07:35:56;4.93;;;2.72;;
72273;SDS011;60208;48.692;8.948;2022-09-13T07:38:23;5.63;;;2.20;;
72273;SDS011;60208;48.692;8.948;2022-09-13T07:40:53;3.97;;;2.00;;
72273;SDS011;60208;48.692;8.948;2022-09-13T07:45:57;5.75;;;1.90;;
72273;SDS011;60208;48.692;8.948;2022-09-13T07:48:24;6.57;;;1.92;;
72273;SDS011;60208;48.692;8.948;2022-09-13T07:51:03;4.50;;;1.63;;
72273;SDS011;60208;48.692;8.948;2022-09-13T07:53:30;4.07;;;1.60;;
72273;SDS011;60208;48.692;8.948;2022-09-13T07:56:03;2.63;;;1.70;;
72273;SDS011;60208;48.692;8.948;2022-09-13T07:58:29;2.60;;;1.58;;
72273;SDS011;60208;48.692;8.948;2022-09-13T08:00:57;3.40;;;1.50;;
72273;SDS011;60208;48.692;8.948;2022-09-13T08:03:27;2.38;;;1.63;;
72273;SDS011;60208;48.692;8.948;2022-09-13T08:05:54;6.72;;;1.63;;
72273;SDS011;60208;48.692;8.948;2022-09-13T08:08:19;2.53;;;1.50;;
72273;SDS011;60208;48.692;8.948;2022-09-13T08:10:45;2.10;;;1.50;;
72273;SDS011;60208;48.692;8.948;2022-09-13T08:13:10;3.03;;;1.65;;
72273;SDS011;60208;48.692;8.948;2022-09-13T08:15:36;4.88;;;1.58;;
72273;SDS011;60208;48.692;8.948;2022-09-13T08:18:01;6.55;;;1.67;;
72273;SDS011;60208;48.692;8.948;2022-09-13T08:20:26;3.83;;;1.58;;
72273;SDS011;60208;48.692;8.948;2022-09-13T08:22:52;1.35;;;1.25;;
72273;SDS011;60208;48.692;8.948;2022-09-13T08:25:17;2.72;;;1.58;;
72273;SDS011;60208;48.692;8.948;2022-09-13T08:27:42;1.38;;;1.25;;
72273;SDS011;60208;48.692;8.948;2022-09-13T08:30:08;2.50;;;1.15;;
72273;SDS011;60208;48.692;8.948;2022-09-13T08:32:34;2.65;;;1.52;;
72273;SDS011;60208;48.692;8.948;2022-09-13T08:34:59;2.80;;;1.33;;
72273;SDS011;60208;48.692;8.948;2022-09-13T08:37:25;3.80;;;1.35;;
72273;SDS011;60208;48.692;8.948;2022-09-13T08:39:50;2.97;;;1.35;;
72273;SDS011;60208;48.692;8.948;2022-09-13T08:45:27;1.60;;;1.20;;
72273;SDS011;60208;48.692;8.948;2022-09-13T08:50:34;3.10;;;2.17;;
72273;SDS011;60208;48.692;8.948;2022-09-13T08:53:05;2.00;;;1.42;;
72273;SDS011;60208;48.692;8.948;2022-09-13T08:55:48;2.85;;;1.33;;
72273;SDS011;60208;48.692;8.948;2022-09-13T09:01:19;0.95;;;0.80;;
72273;SDS011;60208;48.692;8.948;2022-09-13T09:06:14;1.35;;;1.00;;
72273;SDS011;60208;48.692;8.948;2022-09-13T09:16:40;1.08;;;0.90;;
72273;SDS011;60208;48.692;8.948;2022-09-13T09:19:14;1.52;;;0.80;;
72273;SDS011;60208;48.692;8.948;2022-09-13T09:22:01;0.88;;;0.70;;
72273;SDS011;60208;48.692;8.948;2022-09-13T09:24:28;1.35;;;0.80;;
72273;SDS011;60208;48.692;8.948;2022-09-13T09:26:58;1.05;;;0.70;;
72273;SDS011;60208;48.692;8.948;2022-09-13T09:29:26;2.65;;;0.80;;
72273;SDS011;60208;48.692;8.948;2022-09-13T09:34:47;1.08;;;0.52;;
72273;SDS011;60208;48.692;8.948;2022-09-13T09:37:25;1.77;;;0.70;;
72273;SDS011;60208;48.692;8.948;2022-09-13T09:39:53;0.95;;;0.63;;
72273;SDS011;60208;48.692;8.948;2022-09-13T09:42:20;0.70;;;0.70;;
72273;SDS011;60208;48.692;8.948;2022-09-13T09:44:52;2.05;;;0.70;;
72273;SDS011;60208;48.692;8.948;2022-09-13T09:47:24;2.65;;;0.80;;
72273;SDS011;60208;48.692;8.948;2022-09-13T09:49:53;0.93;;;0.60;;
72273;SDS011;60208;48.692;8.948;2022-09-13T09:52:36;1.40;;;0.60;;
72273;SDS011;60208;48.692;8.948;2022-09-13T09:55:11;3.25;;;0.90;;
72273;SDS011;60208;48.692;8.948;2022-09-13T09:57:58;1.83;;;0.60;;
72273;SDS011;60208;48.692;8.948;2022-09-13T10:00:29;1.13;;;0.50;;
72273;SDS011;60208;48.692;8.948;2022-09-13T10:02:57;2.47;;;0.68;;
72273;SDS011;60208;48.692;8.948;2022-09-13T10:05:24;1.27;;;0.85;;
72273;SDS011;60208;48.692;8.948;2022-09-13T10:07:57;0.70;;;0.70;;
72273;SDS011;60208;48.692;8.948;2022-09-13T10:13:06;3.53;;;0.60;;
72273;SDS011;60208;48.692;8.948;2022-09-13T10:15:38;2.10;;;0.80;;
72273;SDS011;60208;48.692;8.948;2022-09-13T10:18:19;0.73;;;0.43;;
72273;SDS011;60208;48.692;8.948;2022-09-13T10:20:59;0.60;;;0.60;;
72273;SDS011;60208;48.692;8.948;2022-09-13T10:23:30;2.58;;;1.05;;
72273;SDS011;60208;48.692;8.948;2022-09-13T10:28:26;1.33;;;0.68;;
72273;SDS011;60208;48.692;8.948;2022-09-13T10:31:01;1.67;;;0.98;;
72273;SDS011;60208;48.692;8.948;2022-09-13T10:36:24;2.35;;;0.68;;
72273;SDS011;60208;48.692;8.948;2022-09-13T10:41:25;2.13;;;0.50;;
72273;SDS011;60208;48.692;8.948;2022-09-13T10:43:58;1.50;;;0.40;;
72273;SDS011;60208;48.692;8.948;2022-09-13T10:46:25;2.38;;;0.93;;
72273;SDS011;60208;48.692;8.948;2022-09-13T10:48:53;1.95;;;0.60;;
72273;SDS011;60208;48.692;8.948;2022-09-13T10:53:49;0.73;;;0.40;;
72273;SDS011;60208;48.692;8.948;2022-09-13T10:56:19;1.60;;;0.60;;
72273;SDS011;60208;48.692;8.948;2022-09-13T10:58:55;0.93;;;0.43;;
72273;SDS011;60208;48.692;8.948;2022-09-13T11:02:01;2.33;;;0.60;;
72273;SDS011;60208;48.692;8.948;2022-09-13T11:07:34;2.10;;;0.50;;
72273;SDS011;60208;48.692;8.948;2022-09-13T11:20:39;2.55;;;0.70;;
72273;SDS011;60208;48.692;8.948;2022-09-13T11:25:53;1.05;;;0.50;;
72273;SDS011;60208;48.692;8.948;2022-09-13T11:58:12;2.95;;;0.55;;
72273;SDS011;60208;48.692;8.948;2022-09-13T12:00:39;0.95;;;0.60;;
72273;SDS011;60208;48.692;8.948;2022-09-13T12:05:39;0.50;;;0.50;;
72273;SDS011;60208;48.692;8.948;2022-09-13T12:11:13;0.35;;;0.30;;
72273;SDS011;60208;48.692;8.948;2022-09-13T12:16:32;1.50;;;0.38;;
72273;SDS011;60208;48.692;8.948;2022-09-13T12:19:01;1.73;;;0.50;;
72273;SDS011;60208;48.692;8.948;2022-09-13T12:21:37;4.38;;;0.63;;
72273;SDS011;60208;48.692;8.948;2022-09-13T12:26:42;2.00;;;0.50;;
72273;SDS011;60208;48.692;8.948;2022-09-13T12:29:27;3.90;;;0.50;;
72273;SDS011;60208;48.692;8.948;2022-09-13T12:31:58;3.47;;;0.52;;
72273;SDS011;60208;48.692;8.948;2022-09-13T12:34:29;1.85;;;0.65;;
72273;SDS011;60208;48.692;8.948;2022-09-13T12:37:04;2.30;;;0.50;;
72273;SDS011;60208;48.692;8.948;2022-09-13T12:48:32;2.58;;;0.40;;
72273;SDS011;60208;48.692;8.948;2022-09-13T13:04:55;3.03;;;0.60;;
72273;SDS011;60208;48.692;8.948;2022-09-13T13:07:22;1.17;;;0.60;;
72273;SDS011;60208;48.692;8.948;2022-09-13T13:09:49;1.05;;;0.60;;
72273;SDS011;60208;48.692;8.948;2022-09-13T13:12:31;1.60;;;0.70;;
72273;SDS011;60208;48.692;8.948;2022-09-13T13:14:59;0.52;;;0.50;;
72273;SDS011;60208;48.692;8.948;2022-09-13T13:17:37;3.97;;;0.80;;
72273;SDS011;60208;48.692;8.948;2022-09-13T13:37:33;0.57;;;0.55;;
72273;SDS011;60208;48.692;8.948;2022-09-13T13:42:21;3.33;;;0.93;;
72273;SDS011;60208;48.692;8.948;2022-09-13T13:57:51;0.88;;;0.60;;
72273;SDS011;60208;48.692;8.948;2022-09-13T14:00:28;0.50;;;0.40;;
72273;SDS011;60208;48.692;8.948;2022-09-13T14:13:48;0.63;;;0.60;;
72273;SDS011;60208;48.692;8.948;2022-09-13T14:22:03;1.35;;;0.50;;
72273;SDS011;60208;48.692;8.948;2022-09-13T14:24:29;0.90;;;0.40;;
72273;SDS011;60208;48.692;8.948;2022-09-13T14:27:01;0.88;;;0.50;;
72273;SDS011;60208;48.692;8.948;2022-09-13T14:29:26;0.40;;;0.40;;
72273;SDS011;60208;48.692;8.948;2022-09-13T14:32:02;0.30;;;0.30;;
72273;SDS011;60208;48.692;8.948;2022-09-13T14:34:30;0.52;;;0.43;;
72273;SDS011;60208;48.692;8.948;2022-09-13T14:37:02;0.93;;;0.90;;
72273;SDS011;60208;48.692;8.948;2022-09-13T14:39:51;0.70;;;0.70;;
72273;SDS011;60208;48.692;8.948;2022-09-13T14:42:20;0.55;;;0.30;;
72273;SDS011;60208;48.692;8.948;2022-09-13T14:44:46;3.10;;;0.30;;
72273;SDS011;60208;48.692;8.948;2022-09-13T14:49:59;1.83;;;0.40;;
72273;SDS011;60208;48.692;8.948;2022-09-13T14:52:32;0.68;;;0.35;;
72273;SDS011;60208;48.692;8.948;2022-09-13T14:55:01;2.70;;;0.32;;
72273;SDS011;60208;48.692;8.948;2022-09-13T14:57:30;0.88;;;0.57;;
72273;SDS011;60208;48.692;8.948;2022-09-13T15:00:32;1.70;;;0.47;;
72273;SDS011;60208;48.692;8.948;2022-09-13T15:02:51;3.35;;;0.70;;
72273;SDS011;60208;48.692;8.948;2022-09-13T15:05:19;0.38;;;0.30;;
72273;SDS011;60208;48.692;8.948;2022-09-13T15:07:47;0.90;;;0.60;;
72273;SDS011;60208;48.692;8.948;2022-09-13T15:10:26;0.63;;;0.60;;
72273;SDS011;60208;48.692;8.948;2022-09-13T15:20:23;0.77;;;0.40;;
72273;SDS011;60208;48.692;8.948;2022-09-13T15:22:49;1.98;;;0.40;;
72273;SDS011;60208;48.692;8.948;2022-09-13T15:25:18;0.70;;;0.30;;
72273;SDS011;60208;48.692;8.948;2022-09-13T15:27:45;0.40;;;0.40;;
72273;SDS011;60208;48.692;8.948;2022-09-13T15:30:44;1.90;;;0.40;;
72273;SDS011;60208;48.692;8.948;2022-09-13T15:33:04;1.38;;;0.80;;
72273;SDS011;60208;48.692;8.948;2022-09-13T15:35:35;1.98;;;0.47;;
72273;SDS011;60208;48.692;8.948;2022-09-13T15:38:19;1.00;;;0.35;;
72273;SDS011;60208;48.692;8.948;2022-09-13T15:40:46;0.75;;;0.40;;
72273;SDS011;60208;48.692;8.948;2022-09-13T15:43:21;3.42;;;0.60;;
72273;SDS011;60208;48.692;8.948;2022-09-13T15:45:47;1.27;;;1.08;;
72273;SDS011;60208;48.692;8.948;2022-09-13T15:48:16;0.45;;;0.40;;
72273;SDS011;60208;48.692;8.948;2022-09-13T15:51:01;2.72;;;0.50;;
72273;SDS011;60208;48.692;8.948;2022-09-13T15:53:29;2.30;;;0.55;;
72273;SDS011;60208;48.692;8.948;2022-09-13T15:55:55;3.13;;;0.80;;
72273;SDS011;60208;48.692;8.948;2022-09-13T15:58:21;6.35;;;1.20;;
72273;SDS011;60208;48.692;8.948;2022-09-13T16:00:46;5.88;;;1.48;;
72273;SDS011;60208;48.692;8.948;2022-09-13T16:03:11;3.22;;;0.80;;
72273;SDS011;60208;48.692;8.948;2022-09-13T16:05:37;1.70;;;0.50;;
72273;SDS011;60208;48.692;8.948;2022-09-13T16:08:02;2.03;;;0.50;;
72273;SDS011;60208;48.692;8.948;2022-09-13T16:10:27;1.75;;;0.98;;
72273;SDS011;60208;48.692;8.948;2022-09-13T16:12:53;2.35;;;0.63;;
72273;SDS011;60208;48.692;8.948;2022-09-13T16:15:19;2.15;;;0.50;;
72273;SDS011;60208;48.692;8.948;2022-09-13T16:17:44;2.42;;;0.50;;
72273;SDS011;60208;48.692;8.948;2022-09-13T16:20:14;2.55;;;0.65;;
72273;SDS011;60208;48.692;8.948;2022-09-13T16:22:40;5.20;;;0.80;;
72273;SDS011;60208;48.692;8.948;2022-09-13T16:25:05;2.63;;;0.70;;
72273;SDS011;60208;48.692;8.948;2022-09-13T16:27:31;6.40;;;0.75;;
72273;SDS011;60208;48.692;8.948;2022-09-13T16:29:56;6.53;;;1.20;;
72273;SDS011;60208;48.692;8.948;2022-09-13T16:32:22;1.27;;;0.77;;
72273;SDS011;60208;48.692;8.948;2022-09-13T16:34:47;5.07;;;1.10;;
72273;SDS011;60208;48.692;8.948;2022-09-13T16:37:16;5.65;;;1.20;;
72273;SDS011;60208;48.692;8.948;2022-09-13T16:39:45;5.80;;;1.30;;
72273;SDS011;60208;48.692;8.948;2022-09-13T16:42:14;5.25;;;1.30;;
72273;SDS011;60208;48.692;8.948;2022-09-13T16:44:41;9.57;;;1.63;;
72273;SDS011;60208;48.692;8.948;2022-09-13T16:47:10;6.80;;;1.80;;
72273;SDS011;60208;48.692;8.948;2022-09-13T16:49:41;15.05;;;1.75;;
72273;SDS011;60208;48.692;8.948;2022-09-13T16:52:06;10.95;;;1.38;;
72273;SDS011;60208;48.692;8.948;2022-09-13T16:54:35;4.88;;;1.00;;
72273;SDS011;60208;48.692;8.948;2022-09-13T16:57:01;6.15;;;1.15;;
72273;SDS011;60208;48.692;8.948;2022-09-13T16:59:37;11.80;;;2.45;;
72273;SDS011;60208;48.692;8.948;2022-09-13T17:02:06;10.00;;;1.42;;
72273;SDS011;60208;48.692;8.948;2022-09-13T17:04:34;7.75;;;1.20;;
72273;SDS011;60208;48.692;8.948;2022-09-13T17:07:00;9.73;;;1.42;;
72273;SDS011;60208;48.692;8.948;2022-09-13T17:09:28;4.60;;;1.23;;
72273;SDS011;60208;48.692;8.948;2022-09-13T17:11:55;3.45;;;1.00;;
72273;SDS011;60208;48.692;8.948;2022-09-13T17:14:20;5.43;;;1.00;;
72273;SDS011;60208;48.692;8.948;2022-09-13T17:16:47;6.15;;;1.00;;
72273;SDS011;60208;48.692;8.948;2022-09-13T17:19:17;5.63;;;1.10;;
72273;SDS011;60208;48.692;8.948;2022-09-13T17:21:45;3.67;;;1.13;;
72273;SDS011;60208;48.692;8.948;2022-09-13T17:24:10;3.47;;;1.00;;
72273;SDS011;60208;48.692;8.948;2022-09-13T17:26:36;2.83;;;1.20;;
72273;SDS011;60208;48.692;8.948;2022-09-13T17:29:02;3.17;;;1.10;;
72273;SDS011;60208;48.692;8.948;2022-09-13T17:31:28;1.80;;;0.90;;
72273;SDS011;60208;48.692;8.948;2022-09-13T17:33:53;4.22;;;1.13;;
72273;SDS011;60208;48.692;8.948;2022-09-13T17:36:19;5.63;;;1.40;;
72273;SDS011;60208;48.692;8.948;2022-09-13T17:38:44;2.92;;;1.17;;
72273;SDS011;60208;48.692;8.948;2022-09-13T17:41:11;2.20;;;1.40;;
72273;SDS011;60208;48.692;8.948;2022-09-13T17:43:41;1.88;;;1.15;;
72273;SDS011;60208;48.692;8.948;2022-09-13T17:46:09;4.38;;;1.20;;
72273;SDS011;60208;48.692;8.948;2022-09-13T17:48:36;6.40;;;1.77;;
72273;SDS011;60208;48.692;8.948;2022-09-13T17:51:02;4.22;;;1.58;;
72273;SDS011;60208;48.692;8.948;2022-09-13T17:53:29;4.55;;;1.15;;
72273;SDS011;60208;48.692;8.948;2022-09-13T17:55:55;3.88;;;2.22;;
72273;SDS011;60208;48.692;8.948;2022-09-13T17:58:22;6.03;;;2.10;;
72273;SDS011;60208;48.692;8.948;2022-09-13T18:00:49;3.55;;;2.30;;
72273;SDS011;60208;48.692;8.948;2022-09-13T18:03:14;5.97;;;1.90;;
72273;SDS011;60208;48.692;8.948;2022-09-13T18:05:40;4.95;;;2.20;;
72273;SDS011;60208;48.692;8.948;2022-09-13T18:08:05;6.05;;;2.63;;
72273;SDS011;60208;48.692;8.948;2022-09-13T18:10:30;5.60;;;2.78;;
72273;SDS011;60208;48.692;8.948;2022-09-13T18:12:56;3.33;;;2.10;;
72273;SDS011;60208;48.692;8.948;2022-09-13T18:15:21;6.18;;;2.40;;
72273;SDS011;60208;48.692;8.948;2022-09-13T18:17:47;4.90;;;1.85;;
72273;SDS011;60208;48.692;8.948;2022-09-13T18:20:12;4.68;;;1.77;;
72273;SDS011;60208;48.692;8.948;2022-09-13T18:22:38;5.47;;;1.83;;
72273;SDS011;60208;48.692;8.948;2022-09-13T18:25:03;4.80;;;3.17;;
72273;SDS011;60208;48.692;8.948;2022-09-13T18:27:29;2.45;;;2.10;;
72273;SDS011;60208;48.692;8.948;2022-09-13T18:29:55;3.05;;;1.60;;
72273;SDS011;60208;48.692;8.948;2022-09-13T18:32:20;5.15;;;1.75;;
72273;SDS011;60208;48.692;8.948;2022-09-13T18:34:46;6.38;;;1.67;;
72273;SDS011;60208;48.692;8.948;2022-09-13T18:37:11;6.80;;;1.88;;
72273;SDS011;60208;48.692;8.948;2022-09-13T18:39:37;2.90;;;1.45;;
72273;SDS011;60208;48.692;8.948;2022-09-13T18:42:02;3.15;;;1.30;;
72273;SDS011;60208;48.692;8.948;2022-09-13T18:44:28;3.30;;;1.13;;
72273;SDS011;60208;48.692;8.948;2022-09-13T18:46:54;3.08;;;1.35;;
72273;SDS011;60208;48.692;8.948;2022-09-13T18:49:20;2.47;;;1.20;;
72273;SDS011;60208;48.692;8.948;2022-09-13T18:51:45;5.18;;;1.85;;
72273;SDS011;60208;48.692;8.948;2022-09-13T18:54:13;2.88;;;1.48;;
72273;SDS011;60208;48.692;8.948;2022-09-13T18:56:40;3.22;;;1.42;;
72273;SDS011;60208;48.692;8.948;2022-09-13T18:59:05;1.80;;;1.02;;
72273;SDS011;60208;48.692;8.948;2022-09-13T19:01:33;4.85;;;3.30;;
72273;SDS011;60208;48.692;8.948;2022-09-13T19:04:00;9.63;;;6.45;;